DAL673 KMSP-KOKC
Flight info
| Callsign | DAL673 |
|---|---|
| Flight time | 1h 44m |
| Altitude | 36000 |
| Route | ORSKY3 ONTIJ KK57E PER GULLI3 |
| Aircraft | A320/M-SDE3FGHIRWY/LB1 |
Departure
| Time | 2026-05-04 22:44 |
|---|---|
| Airport | Minneapolis–Saint Paul International Airport / Wold–Chamberlain Field (KMSP) |
Arrival
| Time | 2026-05-05 00:28 |
|---|---|
| Airport | OKC Will Rogers World Airport (KOKC) |
| Time | Latitude | Longitude | Altitude | Speed | Heading |
|---|---|---|---|---|---|
| 2026-05-04 22:36 | 44.88194 | -93.20207 | 830 ft | 0 kts | 224° |
| 2026-05-04 22:38 | 44.88206 | -93.20191 | 828 ft | 4 kts | 217° |
| 2026-05-04 22:38 | 44.88229 | -93.20173 | 828 ft | 4 kts | 194° |
| 2026-05-04 22:38 | 44.88254 | -93.20172 | 829 ft | 4 kts | 153° |
| 2026-05-04 22:38 | 44.88266 | -93.20185 | 829 ft | 0 kts | 121° |
| 2026-05-04 22:40 | 44.88263 | -93.20178 | 826 ft | 3 kts | 121° |
| 2026-05-04 22:40 | 44.88248 | -93.20136 | 828 ft | 7 kts | 105° |
| 2026-05-04 22:40 | 44.88233 | -93.20073 | 829 ft | 6 kts | 110° |
| 2026-05-04 22:41 | 44.88216 | -93.20016 | 829 ft | 7 kts | 114° |
| 2026-05-04 22:41 | 44.88187 | -93.19946 | 825 ft | 9 kts | 121° |
| 2026-05-04 22:41 | 44.88151 | -93.19862 | 825 ft | 12 kts | 121° |
| 2026-05-04 22:41 | 44.88100 | -93.19754 | 824 ft | 13 kts | 125° |
| 2026-05-04 22:42 | 44.88088 | -93.19653 | 825 ft | 9 kts | 49° |
| 2026-05-04 22:42 | 44.88075 | -93.19587 | 821 ft | 8 kts | 122° |
| 2026-05-04 22:42 | 44.88060 | -93.19508 | 824 ft | 9 kts | 75° |
| 2026-05-04 22:42 | 44.88099 | -93.19453 | 825 ft | 7 kts | 18° |
| 2026-05-04 22:43 | 44.88170 | -93.19509 | 826 ft | 33 kts | 307° |
| 2026-05-04 22:43 | 44.88308 | -93.19821 | 833 ft | 78 kts | 301° |
| 2026-05-04 22:43 | 44.88697 | -93.20697 | 831 ft | 131 kts | 301° |
| 2026-05-04 22:43 | 44.89358 | -93.22243 | 1439 ft | 147 kts | 301° |
| 2026-05-04 22:44 | 44.89700 | -93.23640 | 1913 ft | 165 kts | 274° |
| 2026-05-04 22:44 | 44.89194 | -93.25238 | 2201 ft | 203 kts | 230° |
| 2026-05-04 22:44 | 44.87964 | -93.26514 | 2494 ft | 235 kts | 217° |
| 2026-05-04 22:44 | 44.86968 | -93.27319 | 2764 ft | 253 kts | 214° |
| 2026-05-04 22:45 | 44.85372 | -93.28491 | 3513 ft | 262 kts | 212° |
| 2026-05-04 22:45 | 44.82066 | -93.30869 | 5270 ft | 269 kts | 213° |
| 2026-05-04 22:45 | 44.80422 | -93.32091 | 6141 ft | 272 kts | 214° |
| 2026-05-04 22:46 | 44.78751 | -93.33358 | 6984 ft | 274 kts | 215° |
| 2026-05-04 22:46 | 44.77079 | -93.34643 | 7890 ft | 274 kts | 216° |
| 2026-05-04 22:46 | 44.75407 | -93.35937 | 8810 ft | 274 kts | 217° |
| 2026-05-04 22:46 | 44.73734 | -93.37236 | 9707 ft | 275 kts | 218° |
| 2026-05-04 22:47 | 44.72024 | -93.38577 | 10154 ft | 292 kts | 218° |
| 2026-05-04 22:47 | 44.70193 | -93.40029 | 10491 ft | 310 kts | 218° |
| 2026-05-04 22:47 | 44.68292 | -93.41517 | 11187 ft | 315 kts | 217° |
| 2026-05-04 22:47 | 44.66362 | -93.43009 | 11958 ft | 318 kts | 217° |
| 2026-05-04 22:48 | 44.64417 | -93.44505 | 12750 ft | 319 kts | 217° |
| 2026-05-04 22:48 | 44.62462 | -93.46006 | 13532 ft | 321 kts | 218° |
| 2026-05-04 22:48 | 44.60502 | -93.47518 | 14224 ft | 322 kts | 218° |
| 2026-05-04 22:48 | 44.58552 | -93.49064 | 14915 ft | 322 kts | 219° |
| 2026-05-04 22:49 | 44.56607 | -93.50645 | 15620 ft | 322 kts | 220° |
| 2026-05-04 22:49 | 44.54667 | -93.52238 | 16236 ft | 325 kts | 219° |
| 2026-05-04 22:49 | 44.52713 | -93.53845 | 16883 ft | 327 kts | 220° |
| 2026-05-04 22:49 | 44.50739 | -93.55460 | 17547 ft | 329 kts | 220° |
| 2026-05-04 22:50 | 44.48754 | -93.57080 | 18175 ft | 331 kts | 220° |
| 2026-05-04 22:50 | 44.46756 | -93.58706 | 18737 ft | 333 kts | 220° |
| 2026-05-04 22:50 | 44.44744 | -93.60338 | 19292 ft | 335 kts | 220° |
| 2026-05-04 22:50 | 44.42719 | -93.61979 | 19856 ft | 337 kts | 219° |
| 2026-05-04 22:51 | 44.40709 | -93.63604 | 20405 ft | 339 kts | 219° |
| 2026-05-04 22:51 | 44.38629 | -93.65280 | 20964 ft | 342 kts | 219° |
| 2026-05-04 22:51 | 44.36589 | -93.66924 | 21504 ft | 344 kts | 219° |
| 2026-05-04 22:51 | 44.34506 | -93.68604 | 21967 ft | 348 kts | 219° |
| 2026-05-04 22:52 | 44.32398 | -93.70304 | 22449 ft | 351 kts | 219° |
| 2026-05-04 22:52 | 44.30269 | -93.72021 | 22963 ft | 354 kts | 219° |
| 2026-05-04 22:52 | 44.28128 | -93.73749 | 23457 ft | 357 kts | 219° |
| 2026-05-04 22:52 | 44.25967 | -93.75487 | 23882 ft | 359 kts | 219° |
| 2026-05-04 22:53 | 44.23790 | -93.77233 | 24302 ft | 361 kts | 219° |
| 2026-05-04 22:53 | 44.21606 | -93.78983 | 24719 ft | 363 kts | 219° |
| 2026-05-04 22:53 | 44.19404 | -93.80741 | 25120 ft | 365 kts | 219° |
| 2026-05-04 22:53 | 44.17189 | -93.82508 | 25495 ft | 368 kts | 219° |
| 2026-05-04 22:54 | 44.14964 | -93.84285 | 25815 ft | 371 kts | 219° |
| 2026-05-04 22:54 | 44.12718 | -93.86081 | 26156 ft | 373 kts | 219° |
| 2026-05-04 22:54 | 44.10485 | -93.87870 | 26513 ft | 376 kts | 219° |
| 2026-05-04 22:54 | 44.08210 | -93.89688 | 26871 ft | 378 kts | 219° |
| 2026-05-04 22:55 | 44.05925 | -93.91513 | 27236 ft | 380 kts | 219° |
| 2026-05-04 22:55 | 44.03631 | -93.93343 | 27600 ft | 382 kts | 219° |
| 2026-05-04 22:55 | 44.01321 | -93.95177 | 27941 ft | 384 kts | 219° |
| 2026-05-04 22:55 | 43.98996 | -93.97021 | 28288 ft | 386 kts | 219° |
| 2026-05-04 22:56 | 43.96659 | -93.98872 | 28617 ft | 387 kts | 219° |
| 2026-05-04 22:56 | 43.94309 | -94.00737 | 28891 ft | 390 kts | 219° |
| 2026-05-04 22:56 | 43.91948 | -94.02616 | 29187 ft | 392 kts | 219° |
| 2026-05-04 22:56 | 43.89569 | -94.04501 | 29491 ft | 395 kts | 219° |
| 2026-05-04 22:57 | 43.87206 | -94.06368 | 29792 ft | 396 kts | 219° |
| 2026-05-04 22:57 | 43.84802 | -94.08264 | 30049 ft | 398 kts | 219° |
| 2026-05-04 22:57 | 43.82384 | -94.10167 | 30300 ft | 400 kts | 219° |
| 2026-05-04 22:57 | 43.79961 | -94.12077 | 30546 ft | 401 kts | 219° |
| 2026-05-04 22:58 | 43.77532 | -94.13997 | 30779 ft | 403 kts | 219° |
| 2026-05-04 22:58 | 43.75091 | -94.15927 | 31006 ft | 403 kts | 219° |
| 2026-05-04 22:58 | 43.72683 | -94.17828 | 31287 ft | 404 kts | 219° |
| 2026-05-04 22:58 | 43.70242 | -94.19746 | 31596 ft | 403 kts | 219° |
| 2026-05-04 22:59 | 43.67799 | -94.21662 | 31911 ft | 403 kts | 219° |
| 2026-05-04 22:59 | 43.65366 | -94.23564 | 32221 ft | 402 kts | 219° |
| 2026-05-04 22:59 | 43.62934 | -94.25462 | 32550 ft | 401 kts | 219° |
| 2026-05-04 22:59 | 43.60507 | -94.27362 | 32870 ft | 400 kts | 219° |
| 2026-05-04 23:00 | 43.58086 | -94.29259 | 33233 ft | 399 kts | 219° |
| 2026-05-04 23:00 | 43.55676 | -94.31146 | 33529 ft | 398 kts | 219° |
| 2026-05-04 23:00 | 43.53266 | -94.33030 | 33760 ft | 398 kts | 219° |
| 2026-05-04 23:00 | 43.50856 | -94.34915 | 33988 ft | 399 kts | 219° |
| 2026-05-04 23:01 | 43.48440 | -94.36803 | 34207 ft | 399 kts | 219° |
| 2026-05-04 23:01 | 43.46021 | -94.38690 | 34423 ft | 400 kts | 219° |
| 2026-05-04 23:01 | 43.43591 | -94.40579 | 34634 ft | 401 kts | 219° |
| 2026-05-04 23:01 | 43.41160 | -94.42463 | 34837 ft | 401 kts | 219° |
| 2026-05-04 23:02 | 43.38755 | -94.44325 | 35035 ft | 402 kts | 219° |
| 2026-05-04 23:02 | 43.36318 | -94.46210 | 35232 ft | 402 kts | 219° |
| 2026-05-04 23:02 | 43.33880 | -94.48097 | 35378 ft | 402 kts | 219° |
| 2026-05-04 23:02 | 43.31437 | -94.49992 | 35535 ft | 404 kts | 219° |
| 2026-05-04 23:03 | 43.28864 | -94.51655 | 35705 ft | 416 kts | 210° |
| 2026-05-04 23:03 | 43.26088 | -94.52857 | 35759 ft | 418 kts | 207° |
| 2026-05-04 23:03 | 43.20526 | -94.55144 | 35763 ft | 417 kts | 207° |
| 2026-05-04 23:04 | 43.14978 | -94.57429 | 35759 ft | 416 kts | 207° |
| 2026-05-04 23:04 | 43.09421 | -94.59722 | 35767 ft | 417 kts | 207° |
| 2026-05-04 23:05 | 43.03867 | -94.62018 | 35766 ft | 417 kts | 207° |
| 2026-05-04 23:05 | 42.98313 | -94.64312 | 35765 ft | 417 kts | 207° |
| 2026-05-04 23:06 | 42.92757 | -94.66608 | 35763 ft | 417 kts | 207° |
| 2026-05-04 23:06 | 42.87194 | -94.68898 | 35744 ft | 418 kts | 206° |
| 2026-05-04 23:07 | 42.81624 | -94.71182 | 35747 ft | 418 kts | 206° |
| 2026-05-04 23:07 | 42.76078 | -94.73449 | 35752 ft | 419 kts | 206° |
| 2026-05-04 23:08 | 42.70486 | -94.75733 | 35755 ft | 419 kts | 206° |
| 2026-05-04 23:08 | 42.64896 | -94.78015 | 35759 ft | 419 kts | 206° |
| 2026-05-04 23:09 | 42.59305 | -94.80292 | 35769 ft | 420 kts | 206° |
| 2026-05-04 23:09 | 42.53705 | -94.82560 | 35774 ft | 420 kts | 206° |
| 2026-05-04 23:10 | 42.48099 | -94.84829 | 35755 ft | 420 kts | 206° |
| 2026-05-04 23:10 | 42.42490 | -94.87104 | 35755 ft | 421 kts | 206° |
| 2026-05-04 23:11 | 42.36872 | -94.89375 | 35756 ft | 421 kts | 206° |
| 2026-05-04 23:11 | 42.31290 | -94.91626 | 35747 ft | 421 kts | 206° |
| 2026-05-04 23:12 | 42.25674 | -94.93892 | 35728 ft | 421 kts | 206° |
| 2026-05-04 23:12 | 42.20048 | -94.96145 | 35721 ft | 422 kts | 206° |
| 2026-05-04 23:13 | 42.14425 | -94.98399 | 35724 ft | 422 kts | 206° |
| 2026-05-04 23:13 | 42.08798 | -95.00657 | 35705 ft | 422 kts | 206° |
| 2026-05-04 23:14 | 42.03171 | -95.02907 | 35715 ft | 422 kts | 205° |
| 2026-05-04 23:14 | 41.97537 | -95.05154 | 35720 ft | 422 kts | 205° |
| 2026-05-04 23:15 | 41.91897 | -95.07394 | 35740 ft | 423 kts | 205° |
| 2026-05-04 23:15 | 41.86255 | -95.09630 | 35699 ft | 423 kts | 205° |
| 2026-05-04 23:16 | 41.80612 | -95.11878 | 35707 ft | 423 kts | 205° |
| 2026-05-04 23:16 | 41.74997 | -95.14109 | 35723 ft | 424 kts | 205° |
| 2026-05-04 23:17 | 41.69339 | -95.16343 | 35732 ft | 424 kts | 205° |
| 2026-05-04 23:17 | 41.63672 | -95.18574 | 35713 ft | 424 kts | 205° |
| 2026-05-04 23:18 | 41.58012 | -95.20802 | 35730 ft | 424 kts | 206° |
| 2026-05-04 23:18 | 41.52352 | -95.23030 | 35736 ft | 424 kts | 205° |
| 2026-05-04 23:19 | 41.46676 | -95.25255 | 35697 ft | 424 kts | 205° |
| 2026-05-04 23:19 | 41.41047 | -95.27461 | 35680 ft | 424 kts | 206° |
| 2026-05-04 23:20 | 41.35385 | -95.29672 | 35684 ft | 424 kts | 206° |
| 2026-05-04 23:20 | 41.29720 | -95.31881 | 35685 ft | 424 kts | 206° |
| 2026-05-04 23:21 | 41.24053 | -95.34083 | 35683 ft | 424 kts | 206° |
| 2026-05-04 23:21 | 41.18633 | -95.36188 | 35661 ft | 424 kts | 206° |
| 2026-05-04 23:22 | 41.12976 | -95.38389 | 35675 ft | 423 kts | 206° |
| 2026-05-04 23:22 | 41.07325 | -95.40587 | 35682 ft | 423 kts | 206° |
| 2026-05-04 23:23 | 41.01675 | -95.42769 | 35683 ft | 423 kts | 206° |
| 2026-05-04 23:23 | 40.96020 | -95.44949 | 35660 ft | 423 kts | 206° |
| 2026-05-04 23:24 | 40.90401 | -95.47116 | 35666 ft | 423 kts | 206° |
| 2026-05-04 23:24 | 40.84742 | -95.49291 | 35668 ft | 424 kts | 206° |
| 2026-05-04 23:25 | 40.79075 | -95.51462 | 35667 ft | 424 kts | 206° |
| 2026-05-04 23:25 | 40.73408 | -95.53628 | 35650 ft | 424 kts | 206° |
| 2026-05-04 23:26 | 40.67739 | -95.55796 | 35663 ft | 424 kts | 206° |
| 2026-05-04 23:26 | 40.62070 | -95.57964 | 35671 ft | 424 kts | 206° |
| 2026-05-04 23:27 | 40.56387 | -95.60126 | 35672 ft | 425 kts | 206° |
| 2026-05-04 23:27 | 40.50716 | -95.62286 | 35667 ft | 425 kts | 206° |
| 2026-05-04 23:28 | 40.45038 | -95.64445 | 35689 ft | 425 kts | 206° |
| 2026-05-04 23:28 | 40.39353 | -95.66602 | 35681 ft | 425 kts | 206° |
| 2026-05-04 23:29 | 40.33673 | -95.68755 | 35672 ft | 425 kts | 206° |
| 2026-05-04 23:29 | 40.27998 | -95.70902 | 35640 ft | 425 kts | 207° |
| 2026-05-04 23:30 | 40.22323 | -95.73040 | 35636 ft | 424 kts | 207° |
| 2026-05-04 23:30 | 40.16685 | -95.75157 | 35645 ft | 424 kts | 207° |
| 2026-05-04 23:31 | 40.11022 | -95.77285 | 35650 ft | 424 kts | 207° |
| 2026-05-04 23:31 | 40.06276 | -95.79069 | 35623 ft | 423 kts | 208° |
| 2026-05-04 23:32 | 40.00654 | -95.81184 | 35635 ft | 423 kts | 208° |
| 2026-05-04 23:32 | 39.94995 | -95.83302 | 35640 ft | 423 kts | 208° |
| 2026-05-04 23:33 | 39.89336 | -95.85418 | 35641 ft | 423 kts | 208° |
| 2026-05-04 23:33 | 39.83683 | -95.87521 | 35630 ft | 423 kts | 208° |
| 2026-05-04 23:34 | 39.78024 | -95.89621 | 35631 ft | 423 kts | 208° |
| 2026-05-04 23:34 | 39.72375 | -95.91720 | 35642 ft | 422 kts | 208° |
| 2026-05-04 23:35 | 39.66722 | -95.93816 | 35636 ft | 422 kts | 208° |
| 2026-05-04 23:35 | 39.61071 | -95.95909 | 35618 ft | 423 kts | 209° |
| 2026-05-04 23:36 | 39.55407 | -95.98004 | 35623 ft | 423 kts | 209° |
| 2026-05-04 23:36 | 39.49749 | -96.00090 | 35633 ft | 422 kts | 209° |
| 2026-05-04 23:37 | 39.44189 | -96.02389 | 35632 ft | 417 kts | 212° |
| 2026-05-04 23:37 | 39.38715 | -96.04881 | 35620 ft | 418 kts | 213° |
| 2026-05-04 23:38 | 39.33213 | -96.07368 | 35628 ft | 419 kts | 212° |
| 2026-05-04 23:38 | 39.27672 | -96.09782 | 35612 ft | 420 kts | 212° |
| 2026-05-04 23:39 | 39.22126 | -96.12179 | 35626 ft | 421 kts | 212° |
| 2026-05-04 23:39 | 39.16618 | -96.14560 | 35626 ft | 421 kts | 213° |
| 2026-05-04 23:40 | 39.11060 | -96.16980 | 35639 ft | 421 kts | 213° |
| 2026-05-04 23:40 | 39.05499 | -96.19387 | 35641 ft | 421 kts | 213° |
| 2026-05-04 23:41 | 38.99942 | -96.21782 | 35645 ft | 421 kts | 213° |
| 2026-05-04 23:41 | 38.94390 | -96.24185 | 35617 ft | 420 kts | 213° |
| 2026-05-04 23:42 | 38.88840 | -96.26577 | 35641 ft | 420 kts | 213° |
| 2026-05-04 23:42 | 38.83296 | -96.28963 | 35647 ft | 420 kts | 213° |
| 2026-05-04 23:43 | 38.77761 | -96.31342 | 35649 ft | 420 kts | 213° |
| 2026-05-04 23:43 | 38.72258 | -96.33704 | 35646 ft | 419 kts | 213° |
| 2026-05-04 23:44 | 38.66738 | -96.36063 | 35631 ft | 418 kts | 214° |
| 2026-05-04 23:44 | 38.61224 | -96.38416 | 35641 ft | 417 kts | 214° |
| 2026-05-04 23:45 | 38.55720 | -96.40773 | 35655 ft | 417 kts | 214° |
| 2026-05-04 23:45 | 38.50221 | -96.43124 | 35661 ft | 417 kts | 214° |
| 2026-05-04 23:46 | 38.44719 | -96.45464 | 35649 ft | 417 kts | 215° |
| 2026-05-04 23:46 | 38.39208 | -96.47804 | 35649 ft | 417 kts | 215° |
| 2026-05-04 23:47 | 38.33706 | -96.50130 | 35664 ft | 416 kts | 215° |
| 2026-05-04 23:47 | 38.28242 | -96.52435 | 35668 ft | 415 kts | 215° |
| 2026-05-04 23:48 | 38.22723 | -96.54773 | 35664 ft | 415 kts | 216° |
| 2026-05-04 23:48 | 38.17251 | -96.57091 | 35655 ft | 414 kts | 215° |
| 2026-05-04 23:49 | 38.11816 | -96.59377 | 35652 ft | 414 kts | 216° |
| 2026-05-04 23:49 | 38.06339 | -96.61682 | 35656 ft | 415 kts | 215° |
| 2026-05-04 23:50 | 38.00860 | -96.63982 | 35657 ft | 415 kts | 215° |
| 2026-05-04 23:50 | 37.95375 | -96.66280 | 35653 ft | 415 kts | 216° |
| 2026-05-04 23:51 | 37.89897 | -96.68571 | 35674 ft | 415 kts | 216° |
| 2026-05-04 23:51 | 37.84415 | -96.70866 | 35689 ft | 415 kts | 216° |
| 2026-05-04 23:52 | 37.78927 | -96.73160 | 35697 ft | 415 kts | 216° |
| 2026-05-04 23:52 | 37.73446 | -96.75452 | 35672 ft | 415 kts | 216° |
| 2026-05-04 23:53 | 37.67957 | -96.77737 | 35681 ft | 415 kts | 216° |
| 2026-05-04 23:53 | 37.62468 | -96.80014 | 35681 ft | 415 kts | 216° |
| 2026-05-04 23:54 | 37.56974 | -96.82292 | 35685 ft | 415 kts | 216° |
| 2026-05-04 23:54 | 37.51517 | -96.84552 | 35623 ft | 415 kts | 216° |
| 2026-05-04 23:55 | 37.46019 | -96.86827 | 35666 ft | 416 kts | 216° |
| 2026-05-04 23:56 | 37.37770 | -96.90228 | 35672 ft | 415 kts | 216° |
| 2026-05-04 23:56 | 37.32273 | -96.92493 | 35675 ft | 416 kts | 216° |
| 2026-05-04 23:57 | 37.26775 | -96.94750 | 35652 ft | 416 kts | 216° |
| 2026-05-04 23:57 | 37.21275 | -96.97013 | 35699 ft | 416 kts | 216° |
| 2026-05-04 23:58 | 37.15763 | -96.99268 | 35701 ft | 417 kts | 215° |
| 2026-05-04 23:58 | 37.10279 | -97.01503 | 35704 ft | 417 kts | 215° |
| 2026-05-04 23:59 | 37.04761 | -97.03761 | 35702 ft | 417 kts | 215° |
| 2026-05-04 23:59 | 36.99241 | -97.06022 | 35675 ft | 419 kts | 215° |
| 2026-05-05 00:00 | 36.93683 | -97.08289 | 35654 ft | 421 kts | 215° |
| 2026-05-05 00:00 | 36.88097 | -97.10563 | 34837 ft | 425 kts | 214° |
| 2026-05-05 00:00 | 36.85299 | -97.11696 | 34349 ft | 420 kts | 214° |
| 2026-05-05 00:01 | 36.82525 | -97.12813 | 33845 ft | 417 kts | 214° |
| 2026-05-05 00:01 | 36.79775 | -97.13920 | 33304 ft | 413 kts | 214° |
| 2026-05-05 00:01 | 36.77053 | -97.15016 | 32768 ft | 409 kts | 213° |
| 2026-05-05 00:01 | 36.74245 | -97.15843 | 32287 ft | 425 kts | 202° |
| 2026-05-05 00:02 | 36.71221 | -97.15993 | 31701 ft | 441 kts | 194° |
| 2026-05-05 00:02 | 36.68146 | -97.15939 | 31117 ft | 442 kts | 193° |
| 2026-05-05 00:02 | 36.65070 | -97.15859 | 30528 ft | 442 kts | 192° |
| 2026-05-05 00:02 | 36.61996 | -97.15770 | 29948 ft | 442 kts | 192° |
| 2026-05-05 00:03 | 36.58922 | -97.15684 | 29311 ft | 441 kts | 192° |
| 2026-05-05 00:03 | 36.55903 | -97.15605 | 28736 ft | 437 kts | 191° |
| 2026-05-05 00:03 | 36.52872 | -97.15531 | 28149 ft | 434 kts | 191° |
| 2026-05-05 00:03 | 36.49871 | -97.15462 | 27646 ft | 430 kts | 191° |
| 2026-05-05 00:04 | 36.46885 | -97.15395 | 27075 ft | 428 kts | 190° |
| 2026-05-05 00:04 | 36.43919 | -97.15332 | 26599 ft | 424 kts | 190° |
| 2026-05-05 00:04 | 36.40976 | -97.15273 | 25996 ft | 424 kts | 189° |
| 2026-05-05 00:04 | 36.38057 | -97.15213 | 25666 ft | 416 kts | 189° |
| 2026-05-05 00:05 | 36.35167 | -97.15153 | 25186 ft | 414 kts | 189° |
| 2026-05-05 00:05 | 36.32296 | -97.15093 | 24734 ft | 411 kts | 188° |
| 2026-05-05 00:05 | 36.29450 | -97.15030 | 24308 ft | 408 kts | 188° |
| 2026-05-05 00:05 | 36.26622 | -97.14966 | 23838 ft | 405 kts | 187° |
| 2026-05-05 00:06 | 36.23815 | -97.14906 | 23504 ft | 399 kts | 187° |
| 2026-05-05 00:06 | 36.21051 | -97.14847 | 22991 ft | 397 kts | 187° |
| 2026-05-05 00:06 | 36.18293 | -97.14789 | 22491 ft | 395 kts | 187° |
| 2026-05-05 00:06 | 36.15551 | -97.14732 | 22041 ft | 391 kts | 187° |
| 2026-05-05 00:07 | 36.12845 | -97.14676 | 21609 ft | 387 kts | 187° |
| 2026-05-05 00:07 | 36.10164 | -97.14620 | 21181 ft | 384 kts | 186° |
| 2026-05-05 00:07 | 36.07505 | -97.14563 | 20761 ft | 380 kts | 186° |
| 2026-05-05 00:07 | 36.04909 | -97.14506 | 20349 ft | 376 kts | 186° |
| 2026-05-05 00:08 | 36.02322 | -97.14573 | 19900 ft | 363 kts | 196° |
| 2026-05-05 00:08 | 36.00036 | -97.15556 | 19199 ft | 338 kts | 219° |
| 2026-05-05 00:08 | 35.98172 | -97.17254 | 18425 ft | 331 kts | 223° |
| 2026-05-05 00:08 | 35.96366 | -97.18992 | 17645 ft | 327 kts | 223° |
| 2026-05-05 00:09 | 35.94579 | -97.20711 | 16825 ft | 324 kts | 223° |
| 2026-05-05 00:09 | 35.92809 | -97.22411 | 16040 ft | 321 kts | 223° |
| 2026-05-05 00:09 | 35.91049 | -97.24098 | 15280 ft | 319 kts | 222° |
| 2026-05-05 00:09 | 35.89302 | -97.25767 | 14556 ft | 316 kts | 222° |
| 2026-05-05 00:10 | 35.87591 | -97.27393 | 14090 ft | 305 kts | 222° |
| 2026-05-05 00:10 | 35.85933 | -97.28963 | 13673 ft | 295 kts | 222° |
| 2026-05-05 00:10 | 35.84333 | -97.30479 | 13253 ft | 285 kts | 222° |
| 2026-05-05 00:10 | 35.82789 | -97.31944 | 12856 ft | 276 kts | 222° |
| 2026-05-05 00:11 | 35.81291 | -97.33362 | 12463 ft | 267 kts | 222° |
| 2026-05-05 00:11 | 35.79846 | -97.34730 | 12089 ft | 258 kts | 222° |
| 2026-05-05 00:11 | 35.78449 | -97.36053 | 11731 ft | 249 kts | 222° |
| 2026-05-05 00:11 | 35.77101 | -97.37330 | 11371 ft | 240 kts | 223° |
| 2026-05-05 00:12 | 35.75798 | -97.38563 | 11030 ft | 232 kts | 222° |
| 2026-05-05 00:12 | 35.74538 | -97.39757 | 10694 ft | 225 kts | 223° |
| 2026-05-05 00:12 | 35.73321 | -97.40912 | 10368 ft | 217 kts | 223° |
| 2026-05-05 00:12 | 35.72139 | -97.42037 | 10061 ft | 212 kts | 223° |
| 2026-05-05 00:13 | 35.71001 | -97.43115 | 9772 ft | 201 kts | 223° |
| 2026-05-05 00:13 | 35.69944 | -97.44185 | 9418 ft | 191 kts | 233° |
| 2026-05-05 00:13 | 35.69189 | -97.45478 | 9066 ft | 183 kts | 239° |
| 2026-05-05 00:13 | 35.68482 | -97.46744 | 8714 ft | 176 kts | 239° |
| 2026-05-05 00:14 | 35.67796 | -97.47970 | 8366 ft | 172 kts | 239° |
| 2026-05-05 00:14 | 35.67130 | -97.49162 | 8020 ft | 167 kts | 238° |
| 2026-05-05 00:14 | 35.66481 | -97.50328 | 7687 ft | 163 kts | 239° |
| 2026-05-05 00:14 | 35.65844 | -97.51474 | 7353 ft | 161 kts | 238° |
| 2026-05-05 00:15 | 35.65224 | -97.52587 | 7021 ft | 159 kts | 238° |
| 2026-05-05 00:15 | 35.64607 | -97.53694 | 6689 ft | 155 kts | 238° |
| 2026-05-05 00:15 | 35.64000 | -97.54783 | 6365 ft | 153 kts | 238° |
| 2026-05-05 00:15 | 35.63403 | -97.55857 | 6037 ft | 152 kts | 237° |
| 2026-05-05 00:16 | 35.62812 | -97.56919 | 5690 ft | 150 kts | 236° |
| 2026-05-05 00:16 | 35.62229 | -97.57966 | 5351 ft | 147 kts | 234° |
| 2026-05-05 00:16 | 35.61643 | -97.58991 | 5023 ft | 145 kts | 226° |
| 2026-05-05 00:16 | 35.60769 | -97.59503 | 4689 ft | 145 kts | 182° |
| 2026-05-05 00:17 | 35.59814 | -97.59059 | 4354 ft | 157 kts | 146° |
| 2026-05-05 00:17 | 35.59311 | -97.57807 | 3998 ft | 178 kts | 98° |
| 2026-05-05 00:17 | 35.59766 | -97.56384 | 3984 ft | 193 kts | 45° |
| 2026-05-05 00:17 | 35.60993 | -97.55773 | 3976 ft | 194 kts | 351° |
| 2026-05-05 00:18 | 35.62323 | -97.55973 | 3969 ft | 194 kts | 350° |
| 2026-05-05 00:18 | 35.63663 | -97.56048 | 3944 ft | 189 kts | 354° |
| 2026-05-05 00:18 | 35.64968 | -97.56061 | 3960 ft | 187 kts | 355° |
| 2026-05-05 00:18 | 35.65820 | -97.56064 | 3966 ft | 184 kts | 355° |
| 2026-05-05 00:19 | 35.67095 | -97.56072 | 3969 ft | 183 kts | 355° |
| 2026-05-05 00:19 | 35.68370 | -97.56131 | 3958 ft | 182 kts | 341° |
| 2026-05-05 00:19 | 35.69458 | -97.56767 | 3968 ft | 168 kts | 304° |
| 2026-05-05 00:19 | 35.70065 | -97.57879 | 3966 ft | 149 kts | 273° |
| 2026-05-05 00:20 | 35.69902 | -97.58949 | 3905 ft | 122 kts | 214° |
| 2026-05-05 00:20 | 35.69155 | -97.59525 | 3784 ft | 131 kts | 203° |
| 2026-05-05 00:20 | 35.68253 | -97.59452 | 3869 ft | 142 kts | 159° |
| 2026-05-05 00:20 | 35.67394 | -97.58946 | 3871 ft | 130 kts | 184° |
| 2026-05-05 00:21 | 35.66497 | -97.59096 | 3936 ft | 136 kts | 185° |
| 2026-05-05 00:21 | 35.65556 | -97.58978 | 3938 ft | 135 kts | 181° |
| 2026-05-05 00:21 | 35.64616 | -97.58945 | 3951 ft | 135 kts | 182° |
| 2026-05-05 00:21 | 35.63669 | -97.58929 | 3952 ft | 136 kts | 183° |
| 2026-05-05 00:22 | 35.62726 | -97.58921 | 3956 ft | 135 kts | 184° |
| 2026-05-05 00:22 | 35.61784 | -97.58916 | 3977 ft | 135 kts | 184° |
| 2026-05-05 00:22 | 35.60849 | -97.58911 | 3962 ft | 139 kts | 184° |
| 2026-05-05 00:22 | 35.59874 | -97.58910 | 3965 ft | 141 kts | 181° |
| 2026-05-05 00:23 | 35.58912 | -97.58909 | 3964 ft | 134 kts | 184° |
| 2026-05-05 00:23 | 35.57967 | -97.58910 | 3980 ft | 135 kts | 184° |
| 2026-05-05 00:23 | 35.57025 | -97.58909 | 3978 ft | 135 kts | 185° |
| 2026-05-05 00:23 | 35.56087 | -97.58908 | 3982 ft | 134 kts | 185° |
| 2026-05-05 00:24 | 35.55155 | -97.58907 | 3960 ft | 136 kts | 183° |
| 2026-05-05 00:24 | 35.54207 | -97.58906 | 3875 ft | 134 kts | 183° |
| 2026-05-05 00:24 | 35.53267 | -97.58905 | 3724 ft | 135 kts | 181° |
| 2026-05-05 00:24 | 35.52327 | -97.58903 | 3556 ft | 135 kts | 179° |
| 2026-05-05 00:25 | 35.51396 | -97.58905 | 3376 ft | 133 kts | 184° |
| 2026-05-05 00:25 | 35.50474 | -97.58903 | 3213 ft | 132 kts | 184° |
| 2026-05-05 00:25 | 35.49553 | -97.58902 | 3048 ft | 132 kts | 184° |
| 2026-05-05 00:25 | 35.48634 | -97.58901 | 2880 ft | 132 kts | 181° |
| 2026-05-05 00:26 | 35.47720 | -97.58901 | 2713 ft | 131 kts | 181° |
| 2026-05-05 00:26 | 35.46805 | -97.58900 | 2552 ft | 131 kts | 183° |
| 2026-05-05 00:26 | 35.45891 | -97.58899 | 2394 ft | 132 kts | 184° |
| 2026-05-05 00:26 | 35.44974 | -97.58898 | 2221 ft | 131 kts | 183° |
| 2026-05-05 00:27 | 35.44078 | -97.58897 | 2055 ft | 132 kts | 181° |
| 2026-05-05 00:27 | 35.43159 | -97.58897 | 1878 ft | 132 kts | 182° |
| 2026-05-05 00:27 | 35.42250 | -97.58897 | 1699 ft | 130 kts | 176° |
| 2026-05-05 00:27 | 35.41335 | -97.58896 | 1512 ft | 132 kts | 179° |
| 2026-05-05 00:28 | 35.40414 | -97.58895 | 1337 ft | 132 kts | 179° |
| 2026-05-05 00:28 | 35.39618 | -97.58891 | 1295 ft | 79 kts | 180° |
| 2026-05-05 00:28 | 35.39315 | -97.58896 | 1295 ft | 22 kts | 181° |
| 2026-05-05 00:28 | 35.39221 | -97.58954 | 1295 ft | 17 kts | 248° |
| 2026-05-05 00:29 | 35.39217 | -97.59007 | 1294 ft | 0 kts | 268° |
| 2026-05-05 00:29 | 35.39217 | -97.59009 | 1294 ft | 0 kts | 268° |
| 2026-05-05 00:29 | 35.39217 | -97.59016 | 1294 ft | 1 kts | 268° |
| 2026-05-05 00:29 | 35.39216 | -97.59048 | 1294 ft | 6 kts | 270° |
| 2026-05-05 00:30 | 35.39216 | -97.59100 | 1294 ft | 5 kts | 270° |
| 2026-05-05 00:30 | 35.39216 | -97.59139 | 1295 ft | 4 kts | 270° |
| 2026-05-05 00:30 | 35.39216 | -97.59170 | 1295 ft | 5 kts | 271° |
| 2026-05-05 00:30 | 35.39237 | -97.59212 | 1296 ft | 8 kts | 334° |
| 2026-05-05 00:31 | 35.39303 | -97.59226 | 1296 ft | 11 kts | 359° |
| 2026-05-05 00:31 | 35.39375 | -97.59243 | 1297 ft | 11 kts | 315° |
| 2026-05-05 00:31 | 35.39444 | -97.59255 | 1298 ft | 9 kts | 1° |
| 2026-05-05 00:31 | 35.39498 | -97.59266 | 1300 ft | 6 kts | 329° |
| 2026-05-05 00:32 | 35.39519 | -97.59294 | 1301 ft | 3 kts | 300° |
| 2026-05-05 00:32 | 35.39522 | -97.59313 | 1301 ft | 1 kts | 276° |
| 2026-05-05 00:32 | 35.39522 | -97.59319 | 1301 ft | 0 kts | 271° |
| 2026-05-05 00:32 | 35.39522 | -97.59365 | 1301 ft | 7 kts | 270° |
| 2026-05-05 00:33 | 35.39522 | -97.59387 | 1301 ft | 0 kts | 269° |